sensor_id;sensor_type;location;lat;lon;timestamp;temperature;humidity
67974;DHT22;54756;51.140;6.952;2023-08-07T00:01:49;14.70;99.90
67974;DHT22;54756;51.140;6.952;2023-08-07T00:03:49;14.70;99.90
67974;DHT22;54756;51.140;6.952;2023-08-07T00:05:50;14.70;99.90
67974;DHT22;54756;51.140;6.952;2023-08-07T00:07:55;14.80;99.90
67974;DHT22;54756;51.140;6.952;2023-08-07T00:09:56;14.70;99.90
67974;DHT22;54756;51.140;6.952;2023-08-07T00:11:56;14.70;99.90
67974;DHT22;54756;51.140;6.952;2023-08-07T00:13:57;14.70;99.90
67974;DHT22;54756;51.140;6.952;2023-08-07T00:15:58;14.70;99.90
67974;DHT22;54756;51.140;6.952;2023-08-07T00:18:00;14.70;99.90
67974;DHT22;54756;51.140;6.952;2023-08-07T00:20:00;14.70;99.90
67974;DHT22;54756;51.140;6.952;2023-08-07T00:22:01;14.70;99.90
67974;DHT22;54756;51.140;6.952;2023-08-07T00:24:02;14.70;99.90
67974;DHT22;54756;51.140;6.952;2023-08-07T00:26:02;14.60;99.90
67974;DHT22;54756;51.140;6.952;2023-08-07T00:28:03;14.60;99.90
67974;DHT22;54756;51.140;6.952;2023-08-07T00:30:04;14.60;99.90
67974;DHT22;54756;51.140;6.952;2023-08-07T00:32:05;14.60;99.90
67974;DHT22;54756;51.140;6.952;2023-08-07T00:34:05;14.60;99.90
67974;DHT22;54756;51.140;6.952;2023-08-07T00:36:07;14.60;99.90
67974;DHT22;54756;51.140;6.952;2023-08-07T00:38:08;14.60;99.90
67974;DHT22;54756;51.140;6.952;2023-08-07T00:40:09;14.60;99.90
67974;DHT22;54756;51.140;6.952;2023-08-07T00:42:11;14.60;99.90
67974;DHT22;54756;51.140;6.952;2023-08-07T00:44:12;14.60;99.90
67974;DHT22;54756;51.140;6.952;2023-08-07T00:46:13;14.60;99.90
67974;DHT22;54756;51.140;6.952;2023-08-07T00:48:15;14.60;99.90
67974;DHT22;54756;51.140;6.952;2023-08-07T00:50:16;14.60;99.90
67974;DHT22;54756;51.140;6.952;2023-08-07T00:52:17;14.60;99.90
67974;DHT22;54756;51.140;6.952;2023-08-07T00:54:18;14.60;99.90
67974;DHT22;54756;51.140;6.952;2023-08-07T00:56:20;14.60;99.90
67974;DHT22;54756;51.140;6.952;2023-08-07T00:58:21;14.60;99.90
67974;DHT22;54756;51.140;6.952;2023-08-07T01:00:22;14.60;99.90
67974;DHT22;54756;51.140;6.952;2023-08-07T01:02:23;14.60;99.90
67974;DHT22;54756;51.140;6.952;2023-08-07T01:04:23;14.50;99.90
67974;DHT22;54756;51.140;6.952;2023-08-07T01:06:24;14.60;99.90
67974;DHT22;54756;51.140;6.952;2023-08-07T01:08:25;14.50;99.90
67974;DHT22;54756;51.140;6.952;2023-08-07T01:13:28;14.50;99.90
67974;DHT22;54756;51.140;6.952;2023-08-07T01:15:30;14.40;99.90
67974;DHT22;54756;51.140;6.952;2023-08-07T01:17:33;14.50;99.90
67974;DHT22;54756;51.140;6.952;2023-08-07T01:19:35;14.50;99.90
67974;DHT22;54756;51.140;6.952;2023-08-07T01:21:36;14.40;99.90
67974;DHT22;54756;51.140;6.952;2023-08-07T01:23:37;14.40;99.90
67974;DHT22;54756;51.140;6.952;2023-08-07T01:25:37;14.50;99.90
67974;DHT22;54756;51.140;6.952;2023-08-07T01:27:55;14.50;99.90
67974;DHT22;54756;51.140;6.952;2023-08-07T01:32:28;14.40;99.90
67974;DHT22;54756;51.140;6.952;2023-08-07T01:34:29;14.40;99.90
67974;DHT22;54756;51.140;6.952;2023-08-07T01:36:31;14.40;99.90
67974;DHT22;54756;51.140;6.952;2023-08-07T01:38:32;14.40;99.90
67974;DHT22;54756;51.140;6.952;2023-08-07T01:40:34;14.40;99.90
67974;DHT22;54756;51.140;6.952;2023-08-07T01:42:37;14.40;99.90
67974;DHT22;54756;51.140;6.952;2023-08-07T01:44:38;14.40;99.90
67974;DHT22;54756;51.140;6.952;2023-08-07T01:46:38;14.40;99.90
67974;DHT22;54756;51.140;6.952;2023-08-07T01:48:39;14.50;99.90
67974;DHT22;54756;51.140;6.952;2023-08-07T01:50:39;14.40;99.90
67974;DHT22;54756;51.140;6.952;2023-08-07T01:52:40;14.40;99.90
67974;DHT22;54756;51.140;6.952;2023-08-07T01:54:40;14.40;99.90
67974;DHT22;54756;51.140;6.952;2023-08-07T01:56:41;14.40;99.90
67974;DHT22;54756;51.140;6.952;2023-08-07T01:58:41;14.40;99.90
67974;DHT22;54756;51.140;6.952;2023-08-07T02:00:42;14.40;99.90
67974;DHT22;54756;51.140;6.952;2023-08-07T02:02:42;14.40;99.90
67974;DHT22;54756;51.140;6.952;2023-08-07T02:04:45;14.40;99.90
67974;DHT22;54756;51.140;6.952;2023-08-07T02:06:46;14.40;99.90
67974;DHT22;54756;51.140;6.952;2023-08-07T02:08:46;14.40;99.90
67974;DHT22;54756;51.140;6.952;2023-08-07T02:13:44;14.30;99.90
67974;DHT22;54756;51.140;6.952;2023-08-07T02:15:44;14.20;99.90
67974;DHT22;54756;51.140;6.952;2023-08-07T02:17:45;14.10;99.90
67974;DHT22;54756;51.140;6.952;2023-08-07T02:19:45;14.00;99.90
67974;DHT22;54756;51.140;6.952;2023-08-07T02:21:46;14.00;99.90
67974;DHT22;54756;51.140;6.952;2023-08-07T02:23:46;13.90;99.90
67974;DHT22;54756;51.140;6.952;2023-08-07T02:25:48;13.80;99.90
67974;DHT22;54756;51.140;6.952;2023-08-07T02:27:49;13.80;99.90
67974;DHT22;54756;51.140;6.952;2023-08-07T02:29:49;13.70;99.90
67974;DHT22;54756;51.140;6.952;2023-08-07T02:31:51;13.70;99.90
67974;DHT22;54756;51.140;6.952;2023-08-07T02:33:51;13.60;99.90
67974;DHT22;54756;51.140;6.952;2023-08-07T02:35:52;13.60;99.90
67974;DHT22;54756;51.140;6.952;2023-08-07T02:37:52;13.60;99.90
67974;DHT22;54756;51.140;6.952;2023-08-07T02:39:53;13.60;99.90
67974;DHT22;54756;51.140;6.952;2023-08-07T02:41:54;13.50;99.90
67974;DHT22;54756;51.140;6.952;2023-08-07T02:43:54;13.50;99.90
67974;DHT22;54756;51.140;6.952;2023-08-07T02:45:55;13.50;99.90
67974;DHT22;54756;51.140;6.952;2023-08-07T02:47:56;13.50;99.90
67974;DHT22;54756;51.140;6.952;2023-08-07T02:49:56;13.40;99.90
67974;DHT22;54756;51.140;6.952;2023-08-07T02:51:57;13.50;99.90
67974;DHT22;54756;51.140;6.952;2023-08-07T02:53:57;13.40;99.90
67974;DHT22;54756;51.140;6.952;2023-08-07T02:55:58;13.40;99.90
67974;DHT22;54756;51.140;6.952;2023-08-07T02:57:58;13.40;99.90
67974;DHT22;54756;51.140;6.952;2023-08-07T02:59:59;13.40;99.90
67974;DHT22;54756;51.140;6.952;2023-08-07T03:01:59;13.40;99.90
67974;DHT22;54756;51.140;6.952;2023-08-07T03:04:00;13.40;99.90
67974;DHT22;54756;51.140;6.952;2023-08-07T03:06:00;13.40;99.90
67974;DHT22;54756;51.140;6.952;2023-08-07T03:08:01;13.30;99.90
67974;DHT22;54756;51.140;6.952;2023-08-07T03:10:01;13.40;99.90
67974;DHT22;54756;51.140;6.952;2023-08-07T03:12:02;13.30;99.90
67974;DHT22;54756;51.140;6.952;2023-08-07T03:14:04;13.30;99.90
67974;DHT22;54756;51.140;6.952;2023-08-07T03:16:05;13.30;99.90
67974;DHT22;54756;51.140;6.952;2023-08-07T03:18:07;13.30;99.90
67974;DHT22;54756;51.140;6.952;2023-08-07T03:20:08;13.30;99.90
67974;DHT22;54756;51.140;6.952;2023-08-07T03:22:10;13.30;99.90
67974;DHT22;54756;51.140;6.952;2023-08-07T03:24:10;13.40;99.90
67974;DHT22;54756;51.140;6.952;2023-08-07T03:26:12;13.30;99.90
67974;DHT22;54756;51.140;6.952;2023-08-07T03:28:13;13.30;99.90
67974;DHT22;54756;51.140;6.952;2023-08-07T03:30:13;13.30;99.90
67974;DHT22;54756;51.140;6.952;2023-08-07T03:32:14;13.30;99.90
67974;DHT22;54756;51.140;6.952;2023-08-07T03:34:14;13.30;99.90
67974;DHT22;54756;51.140;6.952;2023-08-07T03:36:15;13.40;99.90
67974;DHT22;54756;51.140;6.952;2023-08-07T03:38:15;13.40;99.90
67974;DHT22;54756;51.140;6.952;2023-08-07T03:40:16;13.40;99.90
67974;DHT22;54756;51.140;6.952;2023-08-07T03:42:16;13.40;99.90
67974;DHT22;54756;51.140;6.952;2023-08-07T03:44:17;13.40;99.90
67974;DHT22;54756;51.140;6.952;2023-08-07T03:46:18;13.40;99.90
67974;DHT22;54756;51.140;6.952;2023-08-07T03:48:18;13.40;99.90
67974;DHT22;54756;51.140;6.952;2023-08-07T03:50:19;13.40;99.90
67974;DHT22;54756;51.140;6.952;2023-08-07T03:52:19;13.40;99.90
67974;DHT22;54756;51.140;6.952;2023-08-07T03:54:20;13.50;99.90
67974;DHT22;54756;51.140;6.952;2023-08-07T03:56:20;13.40;99.90
67974;DHT22;54756;51.140;6.952;2023-08-07T03:58:21;13.40;99.90
67974;DHT22;54756;51.140;6.952;2023-08-07T04:00:21;13.40;99.90
67974;DHT22;54756;51.140;6.952;2023-08-07T04:02:22;13.40;99.90
67974;DHT22;54756;51.140;6.952;2023-08-07T04:04:22;13.40;99.90
67974;DHT22;54756;51.140;6.952;2023-08-07T04:06:23;13.40;99.90
67974;DHT22;54756;51.140;6.952;2023-08-07T04:08:23;13.40;99.90
67974;DHT22;54756;51.140;6.952;2023-08-07T04:10:24;13.40;99.90
67974;DHT22;54756;51.140;6.952;2023-08-07T04:12:25;13.50;99.90
67974;DHT22;54756;51.140;6.952;2023-08-07T04:14:26;13.50;99.90
67974;DHT22;54756;51.140;6.952;2023-08-07T04:16:26;13.50;99.90
67974;DHT22;54756;51.140;6.952;2023-08-07T04:18:27;13.50;99.90
67974;DHT22;54756;51.140;6.952;2023-08-07T04:20:27;13.60;99.90
67974;DHT22;54756;51.140;6.952;2023-08-07T04:22:28;13.60;99.90
67974;DHT22;54756;51.140;6.952;2023-08-07T04:24:28;13.60;99.90
67974;DHT22;54756;51.140;6.952;2023-08-07T04:26:29;13.60;99.90
67974;DHT22;54756;51.140;6.952;2023-08-07T04:28:29;13.60;99.90
67974;DHT22;54756;51.140;6.952;2023-08-07T04:30:30;13.60;99.90
67974;DHT22;54756;51.140;6.952;2023-08-07T04:32:30;13.60;99.90
67974;DHT22;54756;51.140;6.952;2023-08-07T04:34:31;13.60;99.90
67974;DHT22;54756;51.140;6.952;2023-08-07T04:36:31;13.60;99.90
67974;DHT22;54756;51.140;6.952;2023-08-07T04:38:33;13.60;99.90
67974;DHT22;54756;51.140;6.952;2023-08-07T04:40:34;13.60;99.90
67974;DHT22;54756;51.140;6.952;2023-08-07T04:42:34;13.60;99.90
67974;DHT22;54756;51.140;6.952;2023-08-07T04:44:35;13.60;99.90
67974;DHT22;54756;51.140;6.952;2023-08-07T04:46:35;13.60;99.90
67974;DHT22;54756;51.140;6.952;2023-08-07T04:48:36;13.60;99.90
67974;DHT22;54756;51.140;6.952;2023-08-07T04:50:37;13.60;99.90
67974;DHT22;54756;51.140;6.952;2023-08-07T04:52:38;13.60;99.90
67974;DHT22;54756;51.140;6.952;2023-08-07T04:54:39;13.60;99.90
67974;DHT22;54756;51.140;6.952;2023-08-07T04:56:39;13.60;99.90
67974;DHT22;54756;51.140;6.952;2023-08-07T04:58:41;13.60;99.90
67974;DHT22;54756;51.140;6.952;2023-08-07T05:00:41;13.60;99.90
67974;DHT22;54756;51.140;6.952;2023-08-07T05:02:42;13.60;99.90
67974;DHT22;54756;51.140;6.952;2023-08-07T05:04:42;13.60;99.90
67974;DHT22;54756;51.140;6.952;2023-08-07T05:06:43;13.60;99.90
67974;DHT22;54756;51.140;6.952;2023-08-07T05:08:43;13.60;99.90
67974;DHT22;54756;51.140;6.952;2023-08-07T05:10:44;13.60;99.90
67974;DHT22;54756;51.140;6.952;2023-08-07T05:12:44;13.60;99.90
67974;DHT22;54756;51.140;6.952;2023-08-07T05:14:45;13.60;99.90
67974;DHT22;54756;51.140;6.952;2023-08-07T05:16:46;13.60;99.90
67974;DHT22;54756;51.140;6.952;2023-08-07T05:18:47;13.60;99.90
67974;DHT22;54756;51.140;6.952;2023-08-07T05:20:47;13.60;99.90
67974;DHT22;54756;51.140;6.952;2023-08-07T05:22:48;13.60;99.90
67974;DHT22;54756;51.140;6.952;2023-08-07T05:24:49;13.60;99.90
67974;DHT22;54756;51.140;6.952;2023-08-07T05:26:49;13.60;99.90
67974;DHT22;54756;51.140;6.952;2023-08-07T05:28:50;13.70;99.90
67974;DHT22;54756;51.140;6.952;2023-08-07T05:30:50;13.70;99.90
67974;DHT22;54756;51.140;6.952;2023-08-07T05:32:51;13.70;99.90
67974;DHT22;54756;51.140;6.952;2023-08-07T05:34:51;13.70;99.90
67974;DHT22;54756;51.140;6.952;2023-08-07T05:36:52;13.70;99.90
67974;DHT22;54756;51.140;6.952;2023-08-07T05:38:52;13.70;99.90
67974;DHT22;54756;51.140;6.952;2023-08-07T05:40:53;13.70;99.90
67974;DHT22;54756;51.140;6.952;2023-08-07T05:42:53;13.70;99.90
67974;DHT22;54756;51.140;6.952;2023-08-07T05:44:54;13.70;99.90
67974;DHT22;54756;51.140;6.952;2023-08-07T05:46:55;13.70;99.90
67974;DHT22;54756;51.140;6.952;2023-08-07T05:48:55;13.70;99.90
67974;DHT22;54756;51.140;6.952;2023-08-07T05:50:56;13.70;99.90
67974;DHT22;54756;51.140;6.952;2023-08-07T05:52:56;13.70;99.90
67974;DHT22;54756;51.140;6.952;2023-08-07T05:54:57;13.70;99.90
67974;DHT22;54756;51.140;6.952;2023-08-07T05:56:57;13.70;99.90
67974;DHT22;54756;51.140;6.952;2023-08-07T05:58:58;13.70;99.90
67974;DHT22;54756;51.140;6.952;2023-08-07T06:00:58;13.60;99.90
67974;DHT22;54756;51.140;6.952;2023-08-07T06:02:59;13.60;99.90
67974;DHT22;54756;51.140;6.952;2023-08-07T06:04:59;13.60;99.90
67974;DHT22;54756;51.140;6.952;2023-08-07T06:07:00;13.60;99.90
67974;DHT22;54756;51.140;6.952;2023-08-07T06:09:01;13.60;99.90
67974;DHT22;54756;51.140;6.952;2023-08-07T06:11:02;13.60;99.90
67974;DHT22;54756;51.140;6.952;2023-08-07T06:13:05;13.60;99.90
67974;DHT22;54756;51.140;6.952;2023-08-07T06:15:06;13.60;99.90
67974;DHT22;54756;51.140;6.952;2023-08-07T06:17:06;13.60;99.90
67974;DHT22;54756;51.140;6.952;2023-08-07T06:19:07;13.60;99.90
67974;DHT22;54756;51.140;6.952;2023-08-07T06:21:07;13.60;99.90
67974;DHT22;54756;51.140;6.952;2023-08-07T06:23:10;13.60;99.90
67974;DHT22;54756;51.140;6.952;2023-08-07T06:25:11;13.60;99.90
67974;DHT22;54756;51.140;6.952;2023-08-07T06:27:12;13.60;99.90
67974;DHT22;54756;51.140;6.952;2023-08-07T06:29:12;13.60;99.90
67974;DHT22;54756;51.140;6.952;2023-08-07T06:31:13;13.60;99.90
67974;DHT22;54756;51.140;6.952;2023-08-07T06:33:13;13.60;99.90
67974;DHT22;54756;51.140;6.952;2023-08-07T06:35:14;13.60;99.90
67974;DHT22;54756;51.140;6.952;2023-08-07T06:37:15;13.50;99.90
67974;DHT22;54756;51.140;6.952;2023-08-07T06:39:15;13.50;99.90
67974;DHT22;54756;51.140;6.952;2023-08-07T06:41:16;13.50;99.90
67974;DHT22;54756;51.140;6.952;2023-08-07T06:43:16;13.50;99.90
67974;DHT22;54756;51.140;6.952;2023-08-07T06:45:17;13.50;99.90
67974;DHT22;54756;51.140;6.952;2023-08-07T06:47:17;13.50;99.90
67974;DHT22;54756;51.140;6.952;2023-08-07T06:49:18;13.50;99.90
67974;DHT22;54756;51.140;6.952;2023-08-07T06:51:18;13.50;99.90
67974;DHT22;54756;51.140;6.952;2023-08-07T06:53:19;13.50;99.90
67974;DHT22;54756;51.140;6.952;2023-08-07T06:55:20;13.50;99.90
67974;DHT22;54756;51.140;6.952;2023-08-07T06:57:21;13.50;99.90
67974;DHT22;54756;51.140;6.952;2023-08-07T06:59:21;13.50;99.90
67974;DHT22;54756;51.140;6.952;2023-08-07T07:01:22;13.50;99.90
67974;DHT22;54756;51.140;6.952;2023-08-07T07:03:22;13.50;99.90
67974;DHT22;54756;51.140;6.952;2023-08-07T07:05:23;13.50;99.90
67974;DHT22;54756;51.140;6.952;2023-08-07T07:07:23;13.50;99.90
67974;DHT22;54756;51.140;6.952;2023-08-07T07:09:24;13.50;99.90
67974;DHT22;54756;51.140;6.952;2023-08-07T07:11:25;13.40;99.90
67974;DHT22;54756;51.140;6.952;2023-08-07T07:13:26;13.40;99.90
67974;DHT22;54756;51.140;6.952;2023-08-07T07:15:26;13.40;99.90
67974;DHT22;54756;51.140;6.952;2023-08-07T07:17:27;13.40;99.90
67974;DHT22;54756;51.140;6.952;2023-08-07T07:19:27;13.40;99.90
67974;DHT22;54756;51.140;6.952;2023-08-07T07:21:28;13.30;99.90
67974;DHT22;54756;51.140;6.952;2023-08-07T07:23:28;13.30;99.90
67974;DHT22;54756;51.140;6.952;2023-08-07T07:25:29;13.30;99.90
67974;DHT22;54756;51.140;6.952;2023-08-07T07:27:29;13.30;99.90
67974;DHT22;54756;51.140;6.952;2023-08-07T07:29:30;13.30;99.90
67974;DHT22;54756;51.140;6.952;2023-08-07T07:31:31;13.40;99.90
67974;DHT22;54756;51.140;6.952;2023-08-07T07:33:31;13.40;99.90
67974;DHT22;54756;51.140;6.952;2023-08-07T07:35:32;13.40;99.90
67974;DHT22;54756;51.140;6.952;2023-08-07T07:37:34;13.40;99.90
67974;DHT22;54756;51.140;6.952;2023-08-07T07:39:34;13.40;99.90
67974;DHT22;54756;51.140;6.952;2023-08-07T07:41:35;13.40;99.90
67974;DHT22;54756;51.140;6.952;2023-08-07T07:43:36;13.50;99.90
67974;DHT22;54756;51.140;6.952;2023-08-07T07:45:36;13.50;99.90
67974;DHT22;54756;51.140;6.952;2023-08-07T07:47:37;13.50;99.90
67974;DHT22;54756;51.140;6.952;2023-08-07T07:49:37;13.50;99.90
67974;DHT22;54756;51.140;6.952;2023-08-07T07:51:38;13.50;99.90
67974;DHT22;54756;51.140;6.952;2023-08-07T07:53:38;13.50;99.90
67974;DHT22;54756;51.140;6.952;2023-08-07T07:55:39;13.50;99.90
67974;DHT22;54756;51.140;6.952;2023-08-07T07:57:40;13.60;99.90
67974;DHT22;54756;51.140;6.952;2023-08-07T07:59:41;13.60;99.90
67974;DHT22;54756;51.140;6.952;2023-08-07T08:01:41;13.60;99.90
67974;DHT22;54756;51.140;6.952;2023-08-07T08:03:42;13.60;99.90
67974;DHT22;54756;51.140;6.952;2023-08-07T08:05:43;13.60;99.90
67974;DHT22;54756;51.140;6.952;2023-08-07T08:07:44;13.60;99.90
67974;DHT22;54756;51.140;6.952;2023-08-07T08:09:45;13.60;99.90
67974;DHT22;54756;51.140;6.952;2023-08-07T08:11:45;13.60;99.90
67974;DHT22;54756;51.140;6.952;2023-08-07T08:13:46;13.60;99.90
67974;DHT22;54756;51.140;6.952;2023-08-07T08:15:46;13.70;99.90
67974;DHT22;54756;51.140;6.952;2023-08-07T08:17:47;13.70;99.90
67974;DHT22;54756;51.140;6.952;2023-08-07T08:19:48;13.70;99.90
67974;DHT22;54756;51.140;6.952;2023-08-07T08:21:48;13.70;99.90
67974;DHT22;54756;51.140;6.952;2023-08-07T08:23:49;13.70;99.90
67974;DHT22;54756;51.140;6.952;2023-08-07T08:25:50;13.70;99.90
67974;DHT22;54756;51.140;6.952;2023-08-07T08:27:51;13.70;99.90
67974;DHT22;54756;51.140;6.952;2023-08-07T08:29:51;13.80;99.90
67974;DHT22;54756;51.140;6.952;2023-08-07T08:31:52;13.70;99.90
67974;DHT22;54756;51.140;6.952;2023-08-07T08:33:55;13.80;99.90
67974;DHT22;54756;51.140;6.952;2023-08-07T08:35:55;13.80;99.90
67974;DHT22;54756;51.140;6.952;2023-08-07T08:37:56;13.80;99.90
67974;DHT22;54756;51.140;6.952;2023-08-07T08:39:56;13.80;99.90
67974;DHT22;54756;51.140;6.952;2023-08-07T08:41:57;13.80;99.90
67974;DHT22;54756;51.140;6.952;2023-08-07T08:43:59;13.70;99.90
67974;DHT22;54756;51.140;6.952;2023-08-07T08:46:01;13.70;99.90
67974;DHT22;54756;51.140;6.952;2023-08-07T08:48:04;13.70;99.90
67974;DHT22;54756;51.140;6.952;2023-08-07T08:50:10;13.60;99.90
67974;DHT22;54756;51.140;6.952;2023-08-07T08:52:12;13.70;99.90
67974;DHT22;54756;51.140;6.952;2023-08-07T08:54:13;13.60;99.90
67974;DHT22;54756;51.140;6.952;2023-08-07T08:56:15;13.60;99.90
67974;DHT22;54756;51.140;6.952;2023-08-07T08:58:17;13.70;99.90
67974;DHT22;54756;51.140;6.952;2023-08-07T09:00:20;13.70;99.90
67974;DHT22;54756;51.140;6.952;2023-08-07T09:02:22;13.70;99.90
67974;DHT22;54756;51.140;6.952;2023-08-07T09:04:22;13.70;99.90
67974;DHT22;54756;51.140;6.952;2023-08-07T09:06:23;13.70;99.90
67974;DHT22;54756;51.140;6.952;2023-08-07T09:08:26;13.70;99.90
67974;DHT22;54756;51.140;6.952;2023-08-07T09:10:27;13.80;99.90
67974;DHT22;54756;51.140;6.952;2023-08-07T09:12:31;13.80;99.90
67974;DHT22;54756;51.140;6.952;2023-08-07T09:14:33;13.80;99.90
67974;DHT22;54756;51.140;6.952;2023-08-07T09:16:36;13.70;99.90
67974;DHT22;54756;51.140;6.952;2023-08-07T09:18:36;13.80;99.90
67974;DHT22;54756;51.140;6.952;2023-08-07T09:20:37;13.80;99.90
67974;DHT22;54756;51.140;6.952;2023-08-07T09:22:41;13.80;99.90
67974;DHT22;54756;51.140;6.952;2023-08-07T09:24:42;13.80;99.90
67974;DHT22;54756;51.140;6.952;2023-08-07T09:26:43;13.80;99.90
67974;DHT22;54756;51.140;6.952;2023-08-07T09:28:44;13.90;99.90
67974;DHT22;54756;51.140;6.952;2023-08-07T09:30:44;13.90;99.90
67974;DHT22;54756;51.140;6.952;2023-08-07T09:32:47;14.00;99.90
67974;DHT22;54756;51.140;6.952;2023-08-07T09:34:49;14.00;99.90
67974;DHT22;54756;51.140;6.952;2023-08-07T09:36:50;14.10;99.90
67974;DHT22;54756;51.140;6.952;2023-08-07T09:38:52;14.10;99.90
67974;DHT22;54756;51.140;6.952;2023-08-07T09:40:52;14.20;99.90
67974;DHT22;54756;51.140;6.952;2023-08-07T09:42:54;14.30;99.90
67974;DHT22;54756;51.140;6.952;2023-08-07T09:44:54;14.40;99.90
67974;DHT22;54756;51.140;6.952;2023-08-07T09:46:55;14.40;99.90
67974;DHT22;54756;51.140;6.952;2023-08-07T09:48:57;14.50;99.90
67974;DHT22;54756;51.140;6.952;2023-08-07T09:51:00;14.50;99.90
67974;DHT22;54756;51.140;6.952;2023-08-07T09:53:02;14.60;99.90
67974;DHT22;54756;51.140;6.952;2023-08-07T09:55:03;14.70;99.90
67974;DHT22;54756;51.140;6.952;2023-08-07T09:57:05;14.70;99.90
67974;DHT22;54756;51.140;6.952;2023-08-07T09:59:07;14.70;99.90
67974;DHT22;54756;51.140;6.952;2023-08-07T10:01:08;14.80;99.90
67974;DHT22;54756;51.140;6.952;2023-08-07T10:03:10;14.80;99.90
67974;DHT22;54756;51.140;6.952;2023-08-07T10:05:11;14.90;99.90
67974;DHT22;54756;51.140;6.952;2023-08-07T10:07:12;14.90;99.90
67974;DHT22;54756;51.140;6.952;2023-08-07T10:09:15;15.00;99.90
67974;DHT22;54756;51.140;6.952;2023-08-07T10:11:16;15.10;99.90
67974;DHT22;54756;51.140;6.952;2023-08-07T10:13:18;15.10;99.90
67974;DHT22;54756;51.140;6.952;2023-08-07T10:15:19;15.10;99.90
67974;DHT22;54756;51.140;6.952;2023-08-07T10:17:21;15.20;99.90
67974;DHT22;54756;51.140;6.952;2023-08-07T10:19:22;15.20;99.90
67974;DHT22;54756;51.140;6.952;2023-08-07T10:21:24;15.30;99.90
67974;DHT22;54756;51.140;6.952;2023-08-07T10:23:25;15.30;99.90
67974;DHT22;54756;51.140;6.952;2023-08-07T10:25:27;15.40;99.90
67974;DHT22;54756;51.140;6.952;2023-08-07T10:27:31;15.40;99.90
67974;DHT22;54756;51.140;6.952;2023-08-07T10:29:33;15.40;99.90
67974;DHT22;54756;51.140;6.952;2023-08-07T10:31:35;15.50;99.90
67974;DHT22;54756;51.140;6.952;2023-08-07T10:33:36;15.50;99.90
67974;DHT22;54756;51.140;6.952;2023-08-07T10:35:37;15.50;99.90
67974;DHT22;54756;51.140;6.952;2023-08-07T10:37:44;15.50;99.90
67974;DHT22;54756;51.140;6.952;2023-08-07T10:40:04;15.50;99.90
67974;DHT22;54756;51.140;6.952;2023-08-07T10:42:05;15.50;99.90
67974;DHT22;54756;51.140;6.952;2023-08-07T10:44:20;15.60;99.90
67974;DHT22;54756;51.140;6.952;2023-08-07T10:46:22;15.60;99.90
67974;DHT22;54756;51.140;6.952;2023-08-07T10:48:22;15.70;99.90
67974;DHT22;54756;51.140;6.952;2023-08-07T10:50:28;15.70;99.90
67974;DHT22;54756;51.140;6.952;2023-08-07T10:52:29;15.80;99.90
67974;DHT22;54756;51.140;6.952;2023-08-07T10:54:30;15.90;99.90
67974;DHT22;54756;51.140;6.952;2023-08-07T10:56:33;15.90;99.90
67974;DHT22;54756;51.140;6.952;2023-08-07T10:58:38;15.90;99.90
67974;DHT22;54756;51.140;6.952;2023-08-07T11:00:38;16.00;99.90
67974;DHT22;54756;51.140;6.952;2023-08-07T11:02:41;16.00;99.90
67974;DHT22;54756;51.140;6.952;2023-08-07T11:04:43;16.00;99.90
67974;DHT22;54756;51.140;6.952;2023-08-07T11:06:47;16.10;99.90
67974;DHT22;54756;51.140;6.952;2023-08-07T11:08:49;16.10;99.90
67974;DHT22;54756;51.140;6.952;2023-08-07T11:10:51;16.20;99.90
67974;DHT22;54756;51.140;6.952;2023-08-07T11:12:52;16.20;99.90
67974;DHT22;54756;51.140;6.952;2023-08-07T11:14:53;16.20;99.90
67974;DHT22;54756;51.140;6.952;2023-08-07T11:16:56;16.20;99.90
67974;DHT22;54756;51.140;6.952;2023-08-07T11:18:57;16.20;99.90
67974;DHT22;54756;51.140;6.952;2023-08-07T11:20:58;16.20;99.90
67974;DHT22;54756;51.140;6.952;2023-08-07T11:22:59;16.20;99.90
67974;DHT22;54756;51.140;6.952;2023-08-07T11:25:01;16.20;99.90
67974;DHT22;54756;51.140;6.952;2023-08-07T11:27:02;16.20;99.90
67974;DHT22;54756;51.140;6.952;2023-08-07T11:29:02;16.20;99.90
67974;DHT22;54756;51.140;6.952;2023-08-07T11:31:03;16.20;99.90
67974;DHT22;54756;51.140;6.952;2023-08-07T11:33:03;16.20;99.90
67974;DHT22;54756;51.140;6.952;2023-08-07T11:35:06;16.20;99.90
67974;DHT22;54756;51.140;6.952;2023-08-07T11:37:06;16.30;99.90
67974;DHT22;54756;51.140;6.952;2023-08-07T11:39:07;16.30;99.90
67974;DHT22;54756;51.140;6.952;2023-08-07T11:41:08;16.30;99.90
67974;DHT22;54756;51.140;6.952;2023-08-07T11:43:08;16.40;99.90
67974;DHT22;54756;51.140;6.952;2023-08-07T11:45:10;16.50;99.90
67974;DHT22;54756;51.140;6.952;2023-08-07T11:47:10;16.40;99.90
67974;DHT22;54756;51.140;6.952;2023-08-07T11:49:12;16.50;99.90
67974;DHT22;54756;51.140;6.952;2023-08-07T11:51:13;16.50;99.90
67974;DHT22;54756;51.140;6.952;2023-08-07T11:53:13;16.60;99.90
67974;DHT22;54756;51.140;6.952;2023-08-07T11:55:14;16.70;99.90
67974;DHT22;54756;51.140;6.952;2023-08-07T11:57:19;16.70;99.90
67974;DHT22;54756;51.140;6.952;2023-08-07T11:59:20;16.80;99.90
67974;DHT22;54756;51.140;6.952;2023-08-07T12:01:22;16.90;99.90
67974;DHT22;54756;51.140;6.952;2023-08-07T12:03:31;17.00;99.90
67974;DHT22;54756;51.140;6.952;2023-08-07T12:05:39;17.10;99.90
67974;DHT22;54756;51.140;6.952;2023-08-07T12:07:41;17.10;99.90
67974;DHT22;54756;51.140;6.952;2023-08-07T12:09:41;17.20;99.90
67974;DHT22;54756;51.140;6.952;2023-08-07T12:11:42;17.20;99.90
67974;DHT22;54756;51.140;6.952;2023-08-07T12:13:44;17.30;99.90
67974;DHT22;54756;51.140;6.952;2023-08-07T12:15:45;17.30;99.90
67974;DHT22;54756;51.140;6.952;2023-08-07T12:17:46;17.30;99.90
67974;DHT22;54756;51.140;6.952;2023-08-07T12:19:46;17.30;99.90
67974;DHT22;54756;51.140;6.952;2023-08-07T12:21:47;17.30;99.90
67974;DHT22;54756;51.140;6.952;2023-08-07T12:23:48;17.20;99.90
67974;DHT22;54756;51.140;6.952;2023-08-07T12:25:49;17.20;99.90
67974;DHT22;54756;51.140;6.952;2023-08-07T12:27:49;17.20;99.90
67974;DHT22;54756;51.140;6.952;2023-08-07T12:29:50;17.20;99.90
67974;DHT22;54756;51.140;6.952;2023-08-07T12:31:51;17.30;99.90
67974;DHT22;54756;51.140;6.952;2023-08-07T12:33:51;17.30;99.90
67974;DHT22;54756;51.140;6.952;2023-08-07T12:35:52;17.30;99.90
67974;DHT22;54756;51.140;6.952;2023-08-07T12:37:53;17.30;99.90
67974;DHT22;54756;51.140;6.952;2023-08-07T12:39:54;17.30;99.90
67974;DHT22;54756;51.140;6.952;2023-08-07T12:41:55;17.40;99.90
67974;DHT22;54756;51.140;6.952;2023-08-07T12:43:55;17.50;99.90
67974;DHT22;54756;51.140;6.952;2023-08-07T12:45:56;17.60;99.90
67974;DHT22;54756;51.140;6.952;2023-08-07T12:47:56;17.70;99.90
67974;DHT22;54756;51.140;6.952;2023-08-07T12:49:57;17.70;99.90
67974;DHT22;54756;51.140;6.952;2023-08-07T12:51:57;17.80;99.90
67974;DHT22;54756;51.140;6.952;2023-08-07T12:53:58;17.90;99.90